Time;durP1;ratioP1;P1;durP2;ratioP2;P2;SDS_P1;SDS_P2;PMS_P1;PMS_P2;Temp;Humidity;BMP_temperature;BMP_pressure;BME280_temperature;BME280_humidity;BME280_pressure;Samples;Min_cycle;Max_cycle;Signal;HPM_P1;HPM_P2
2022/10/17 00:00:22;;;;;;;10.20;7.53;;;23.00;57.80;;;;;;5037457;28;20426;-80
2022/10/17 00:02:52;;;;;;;9.40;7.10;;;23.00;57.90;;;;;;5038241;28;20478;-80
2022/10/17 00:05:20;;;;;;;9.00;6.37;;;23.00;58.10;;;;;;5028116;28;20445;-79
2022/10/17 00:07:47;;;;;;;8.20;6.90;;;23.00;58.00;;;;;;5027951;28;20439;-80
2022/10/17 00:10:16;;;;;;;9.57;6.87;;;23.00;57.90;;;;;;5037960;28;20442;-79
2022/10/17 00:12:43;;;;;;;9.93;6.80;;;23.00;58.00;;;;;;5038145;28;20469;-79
2022/10/17 00:15:15;;;;;;;9.80;6.73;;;23.00;58.10;;;;;;5037443;28;20448;-80
2022/10/17 00:17:42;;;;;;;8.93;6.33;;;23.00;58.10;;;;;;5037125;28;20470;-79
2022/10/17 00:20:12;;;;;;;6.50;5.90;;;23.00;58.20;;;;;;5022896;28;20434;-79
2022/10/17 00:22:41;;;;;;;12.60;6.40;;;22.90;58.10;;;;;;5037257;28;20475;-80
2022/10/17 00:25:09;;;;;;;8.37;5.90;;;22.90;58.20;;;;;;5037132;28;20422;-80
2022/10/17 00:27:37;;;;;;;8.50;6.27;;;23.00;58.30;;;;;;5037992;28;20451;-80
2022/10/17 00:30:07;;;;;;;10.33;6.40;;;22.90;58.00;;;;;;5033777;28;20438;-79
2022/10/17 00:32:35;;;;;;;8.33;5.93;;;22.90;58.20;;;;;;5038221;28;20472;-80
2022/10/17 00:35:03;;;;;;;6.23;5.63;;;22.90;58.20;;;;;;5032854;28;20475;-80
2022/10/17 00:37:32;;;;;;;10.40;6.70;;;22.90;58.30;;;;;;5037057;28;20459;-80
2022/10/17 00:40:00;;;;;;;8.50;6.20;;;22.90;58.40;;;;;;5037912;28;20508;-80
2022/10/17 00:42:28;;;;;;;10.53;6.20;;;22.90;58.30;;;;;;5037969;28;20422;-80
2022/10/17 00:45:14;;;;;;;6.97;5.33;;;22.90;58.40;;;;;;5036193;28;20484;-80
2022/10/17 00:47:42;;;;;;;10.13;6.20;;;22.90;58.30;;;;;;5036311;28;20501;-80
2022/10/17 00:50:10;;;;;;;7.73;6.10;;;22.90;58.40;;;;;;5036811;28;20459;-80
2022/10/17 00:52:40;;;;;;;7.37;5.60;;;22.90;58.50;;;;;;5035733;28;20463;-80
2022/10/17 00:55:09;;;;;;;9.90;5.63;;;22.90;58.50;;;;;;5037298;28;20475;-80
2022/10/17 00:57:37;;;;;;;6.73;6.03;;;22.90;58.50;;;;;;5037050;28;20435;-80
2022/10/17 01:00:07;;;;;;;9.20;6.17;;;22.90;58.40;;;;;;5037837;28;20418;-80
2022/10/17 01:02:35;;;;;;;12.00;6.40;;;22.90;58.50;;;;;;5037217;28;21008;-80
2022/10/17 01:05:02;;;;;;;7.97;6.13;;;22.90;58.50;;;;;;5033200;28;20461;-80
2022/10/17 01:07:31;;;;;;;7.17;5.90;;;22.90;58.60;;;;;;5038206;28;20417;-80
2022/10/17 01:10:06;;;;;;;9.77;6.07;;;22.90;58.60;;;;;;5036938;28;20447;-80
2022/10/17 01:12:39;;;;;;;7.60;5.70;;;22.80;58.40;;;;;;5038101;28;20481;-80
2022/10/17 01:15:11;;;;;;;6.80;5.80;;;22.80;58.70;;;;;;5043735;28;20476;-80
2022/10/17 01:17:46;;;;;;;6.50;5.80;;;22.80;58.60;;;;;;5038605;28;20438;-80
2022/10/17 01:20:49;;;;;;;8.53;5.53;;;22.80;58.70;;;;;;5037724;28;20455;-80
2022/10/17 01:23:27;;;;;;;10.60;5.57;;;22.80;58.70;;;;;;5035158;28;20479;-80
2022/10/17 01:26:01;;;;;;;6.73;5.20;;;22.80;58.80;;;;;;5036503;28;20455;-80
2022/10/17 01:28:40;;;;;;;6.97;5.37;;;22.80;58.80;;;;;;5037624;28;20456;-81
2022/10/17 01:31:09;;;;;;;6.50;5.20;;;22.80;58.80;;;;;;5032970;28;20394;-78
2022/10/17 01:33:44;;;;;;;7.23;5.23;;;22.80;58.90;;;;;;5013245;28;20444;-79
2022/10/17 01:36:12;;;;;;;7.30;5.30;;;22.80;58.80;;;;;;5023649;28;20448;-79
2022/10/17 01:38:46;;;;;;;4.80;4.40;;;22.80;58.80;;;;;;5029507;28;20429;-79
2022/10/17 01:41:15;;;;;;;6.57;5.23;;;22.80;58.80;;;;;;5030388;28;20451;-79
2022/10/17 01:43:45;;;;;;;8.47;4.83;;;22.80;58.80;;;;;;5026175;28;20447;-79
2022/10/17 01:46:16;;;;;;;6.57;5.33;;;22.80;58.80;;;;;;5032218;28;20451;-80
2022/10/17 01:48:45;;;;;;;12.20;5.40;;;22.80;58.90;;;;;;5032164;28;20418;-79
2022/10/17 01:51:17;;;;;;;8.33;5.53;;;22.80;58.80;;;;;;5017807;28;20439;-79
2022/10/17 01:53:47;;;;;;;7.13;5.27;;;22.80;58.80;;;;;;5020791;28;20427;-79
2022/10/17 01:56:15;;;;;;;7.10;4.53;;;22.70;58.90;;;;;;5032259;28;20438;-80
2022/10/17 01:58:45;;;;;;;5.70;5.07;;;22.80;59.00;;;;;;5016601;28;20448;-81
2022/10/17 02:01:15;;;;;;;5.20;4.70;;;22.80;58.90;;;;;;5025824;28;20455;-80
2022/10/17 02:03:43;;;;;;;5.23;4.70;;;22.70;58.80;;;;;;5026795;28;20451;-80
2022/10/17 02:06:11;;;;;;;6.83;5.00;;;22.70;58.90;;;;;;5033999;28;20476;-81
2022/10/17 02:08:43;;;;;;;5.43;4.93;;;22.70;59.00;;;;;;5033193;28;20455;-81
2022/10/17 02:11:13;;;;;;;5.33;4.80;;;22.70;58.90;;;;;;5033455;28;20429;-80
2022/10/17 02:13:54;;;;;;;5.70;4.90;;;22.70;59.00;;;;;;5042078;28;20455;-79
2022/10/17 02:16:28;;;;;;;5.17;4.57;;;22.70;59.00;;;;;;5037245;28;20457;-81
2022/10/17 02:19:16;;;;;;;5.47;4.67;;;22.70;59.10;;;;;;5047096;28;20448;-81
2022/10/17 02:21:46;;;;;;;6.40;5.20;;;22.70;59.20;;;;;;5048449;28;20471;-81
2022/10/17 02:24:18;;;;;;;6.27;4.77;;;22.70;59.10;;;;;;5050386;28;20517;-79
2022/10/17 02:26:48;;;;;;;9.13;5.20;;;22.70;59.10;;;;;;5049911;28;20455;-80
2022/10/17 02:29:17;;;;;;;5.60;5.00;;;22.70;59.20;;;;;;5053412;28;20414;-80
2022/10/17 02:31:48;;;;;;;5.70;4.83;;;22.70;59.20;;;;;;5058688;28;20430;-80
2022/10/17 02:34:17;;;;;;;5.13;4.50;;;22.70;59.30;;;;;;5054774;28;20447;-79
2022/10/17 02:36:47;;;;;;;4.80;4.40;;;22.70;59.20;;;;;;5058000;28;20450;-80
2022/10/17 02:39:15;;;;;;;5.40;4.50;;;22.70;59.30;;;;;;5039744;28;20512;-80
2022/10/17 02:41:43;;;;;;;6.63;4.63;;;22.60;59.20;;;;;;5036977;28;20473;-80
2022/10/17 02:44:11;;;;;;;4.33;3.87;;;22.60;59.20;;;;;;5037371;28;20458;-80
2022/10/17 02:46:39;;;;;;;4.63;3.73;;;22.60;59.20;;;;;;5037865;28;20490;-79
2022/10/17 02:49:12;;;;;;;6.40;4.97;;;22.60;59.20;;;;;;5026014;28;20461;-80
2022/10/17 02:51:42;;;;;;;6.60;4.20;;;22.60;59.40;;;;;;5022196;28;20442;-81
2022/10/17 02:54:13;;;;;;;6.10;4.50;;;22.60;59.30;;;;;;5052095;28;20434;-79
2022/10/17 02:56:42;;;;;;;5.47;4.50;;;22.50;59.40;;;;;;5036795;28;20518;-79
2022/10/17 02:59:12;;;;;;;4.77;4.20;;;22.50;59.30;;;;;;5025030;28;20441;-80
2022/10/17 03:01:40;;;;;;;5.67;4.77;;;22.50;59.60;;;;;;5036440;28;20471;-80
2022/10/17 03:04:10;;;;;;;4.90;3.90;;;22.50;59.50;;;;;;5036408;28;20441;-79
2022/10/17 03:06:38;;;;;;;5.10;4.60;;;22.50;59.50;;;;;;5036876;28;20428;-80
2022/10/17 03:09:06;;;;;;;5.03;4.03;;;22.50;59.60;;;;;;5036158;28;20433;-80
2022/10/17 03:11:34;;;;;;;4.80;4.27;;;22.40;59.50;;;;;;5017543;28;20473;-80
2022/10/17 03:14:02;;;;;;;5.67;4.10;;;22.40;59.60;;;;;;5036476;28;20455;-80
2022/10/17 03:16:30;;;;;;;5.20;3.83;;;22.40;59.70;;;;;;5037175;28;20442;-79
2022/10/17 03:18:58;;;;;;;4.30;4.00;;;22.40;59.70;;;;;;5038072;28;20451;-80
2022/10/17 03:21:27;;;;;;;5.00;4.50;;;22.40;59.70;;;;;;5039176;28;20471;-82
2022/10/17 03:23:55;;;;;;;4.43;4.00;;;22.40;59.70;;;;;;5038436;28;20463;-80
2022/10/17 03:26:23;;;;;;;4.60;4.17;;;22.40;59.70;;;;;;5039254;28;20972;-80
2022/10/17 03:28:52;;;;;;;5.00;4.50;;;22.40;59.70;;;;;;5038809;28;20459;-81
2022/10/17 03:31:21;;;;;;;4.90;4.40;;;22.30;59.70;;;;;;5038528;28;20534;-81
2022/10/17 03:33:49;;;;;;;4.53;4.13;;;22.30;59.60;;;;;;5038397;28;20448;-81
2022/10/17 03:36:18;;;;;;;4.13;3.77;;;22.30;59.70;;;;;;5038130;28;20483;-80
2022/10/17 03:38:47;;;;;;;4.50;4.10;;;22.30;59.70;;;;;;5037236;28;20447;-80
2022/10/17 03:41:15;;;;;;;8.63;4.40;;;22.30;59.60;;;;;;5023156;28;20429;-80
2022/10/17 03:43:44;;;;;;;5.27;4.30;;;22.30;59.70;;;;;;5037128;28;20451;-80
2022/10/17 03:46:11;;;;;;;5.33;4.20;;;22.30;59.80;;;;;;5029320;28;20463;-80
2022/10/17 03:48:39;;;;;;;4.00;3.70;;;22.40;60.00;;;;;;5037433;28;20455;-81
2022/10/17 03:51:08;;;;;;;4.40;3.43;;;22.30;59.80;;;;;;5038506;28;20417;-81
2022/10/17 03:53:36;;;;;;;4.43;4.03;;;22.30;59.80;;;;;;5027206;28;20451;-81
2022/10/17 03:56:13;;;;;;;4.80;4.30;;;22.30;59.90;;;;;;5038500;28;20467;-81
2022/10/17 03:58:41;;;;;;;5.13;3.90;;;22.30;59.80;;;;;;5037923;28;20453;-80
2022/10/17 04:01:10;;;;;;;5.40;3.77;;;22.20;60.00;;;;;;5038089;28;20467;-80
2022/10/17 04:03:38;;;;;;;4.63;4.17;;;22.20;59.90;;;;;;5037873;28;20453;-81
2022/10/17 04:06:06;;;;;;;4.30;3.90;;;22.20;60.00;;;;;;5038254;28;20451;-81
2022/10/17 04:08:34;;;;;;;3.93;3.63;;;22.20;59.90;;;;;;5022995;28;20457;-80
2022/10/17 04:11:02;;;;;;;4.00;3.70;;;22.20;60.10;;;;;;5038228;28;20447;-81
2022/10/17 04:13:32;;;;;;;4.30;3.90;;;22.20;60.00;;;;;;5038848;28;20460;-81
2022/10/17 04:16:01;;;;;;;3.77;3.47;;;22.20;60.10;;;;;;5038090;28;20455;-81
2022/10/17 04:18:29;;;;;;;5.03;3.40;;;22.20;60.10;;;;;;5037195;28;20452;-81
2022/10/17 04:20:57;;;;;;;3.63;3.33;;;22.20;60.10;;;;;;5037267;28;20446;-81
2022/10/17 04:23:26;;;;;;;4.20;3.80;;;22.20;60.20;;;;;;5040419;28;20506;-81
2022/10/17 04:25:56;;;;;;;3.87;3.57;;;22.20;60.10;;;;;;5040859;28;20454;-81
2022/10/17 04:28:24;;;;;;;3.90;3.60;;;22.10;60.10;;;;;;5040219;28;20459;-81
2022/10/17 04:30:57;;;;;;;4.00;3.70;;;22.10;60.10;;;;;;5040077;28;20454;-81
2022/10/17 04:33:25;;;;;;;3.93;3.60;;;22.10;60.20;;;;;;5039875;28;20461;-81
2022/10/17 04:35:58;;;;;;;4.83;3.80;;;22.10;60.10;;;;;;5039206;28;20455;-81
2022/10/17 04:38:26;;;;;;;3.63;3.33;;;22.10;60.10;;;;;;5040362;28;20448;-81
2022/10/17 04:40:57;;;;;;;3.87;3.57;;;22.10;60.30;;;;;;5039770;28;20470;-80
2022/10/17 04:43:25;;;;;;;5.13;3.30;;;22.10;60.30;;;;;;5033799;28;20466;-81
2022/10/17 04:45:53;;;;;;;3.40;3.20;;;22.10;60.20;;;;;;5039027;28;20458;-80
2022/10/17 04:48:23;;;;;;;3.60;3.33;;;22.00;60.30;;;;;;5040315;28;20458;-81
2022/10/17 04:50:54;;;;;;;3.30;3.10;;;22.00;60.30;;;;;;5039471;28;20443;-80
2022/10/17 04:53:22;;;;;;;4.50;3.43;;;22.00;60.40;;;;;;5039674;28;20475;-81
2022/10/17 04:55:51;;;;;;;3.97;3.67;;;22.00;60.40;;;;;;5037542;28;20459;-82
2022/10/17 04:58:19;;;;;;;3.63;3.33;;;22.00;60.50;;;;;;5029349;28;20453;-81
2022/10/17 05:00:47;;;;;;;3.73;3.43;;;22.00;60.50;;;;;;5039074;28;20427;-81
2022/10/17 05:03:15;;;;;;;3.60;3.37;;;22.00;60.40;;;;;;5037732;28;20446;-79
2022/10/17 05:05:45;;;;;;;3.77;3.47;;;22.00;60.50;;;;;;5023228;28;20422;-80
2022/10/17 05:08:14;;;;;;;2.93;2.73;;;21.90;60.50;;;;;;5029479;28;20450;-81
2022/10/17 05:10:43;;;;;;;3.33;3.03;;;21.90;60.70;;;;;;5030994;28;20440;-81
2022/10/17 05:13:12;;;;;;;4.33;3.53;;;21.90;60.50;;;;;;5034153;28;20463;-80
2022/10/17 05:15:40;;;;;;;2.97;2.77;;;21.90;60.80;;;;;;5035453;28;20461;-80
2022/10/17 05:18:07;;;;;;;4.73;3.40;;;21.90;60.80;;;;;;5039191;28;20471;-80
2022/10/17 05:20:35;;;;;;;3.47;3.17;;;21.90;60.70;;;;;;5055709;28;20448;-80
2022/10/17 05:23:05;;;;;;;3.80;3.50;;;21.90;60.80;;;;;;5039181;28;20438;-80
2022/10/17 05:25:33;;;;;;;3.80;3.40;;;21.90;60.70;;;;;;5039090;28;20434;-81
2022/10/17 05:28:01;;;;;;;3.53;3.30;;;21.90;60.90;;;;;;5038504;28;20428;-80
2022/10/17 05:30:29;;;;;;;2.97;2.77;;;21.90;60.90;;;;;;5038655;28;20542;-81
2022/10/17 05:33:04;;;;;;;4.67;3.47;;;21.90;60.80;;;;;;5029285;28;20469;-81
2022/10/17 05:35:32;;;;;;;3.40;3.10;;;21.80;60.70;;;;;;5036935;28;20462;-81
2022/10/17 05:38:00;;;;;;;4.20;3.17;;;21.80;60.80;;;;;;5039913;28;20490;-81
2022/10/17 05:40:29;;;;;;;3.47;3.23;;;21.80;60.90;;;;;;5038604;28;20455;-80
2022/10/17 05:42:57;;;;;;;4.60;2.70;;;21.80;60.80;;;;;;5039425;28;20446;-81
2022/10/17 05:45:25;;;;;;;3.40;3.20;;;21.80;60.90;;;;;;5039125;28;20451;-81
2022/10/17 05:47:53;;;;;;;4.20;2.90;;;21.80;61.00;;;;;;5037411;28;20439;-80
2022/10/17 05:50:23;;;;;;;2.73;2.63;;;21.80;61.00;;;;;;5025463;28;20462;-80
2022/10/17 05:52:53;;;;;;;3.63;3.30;;;21.80;60.90;;;;;;5036716;28;20467;-81
2022/10/17 05:55:22;;;;;;;3.10;2.90;;;21.80;60.90;;;;;;5030108;28;20452;-81
2022/10/17 05:57:52;;;;;;;3.40;3.10;;;21.80;61.00;;;;;;5034721;28;20475;-80
2022/10/17 06:00:21;;;;;;;3.10;2.90;;;21.80;60.90;;;;;;5028509;28;20427;-80
2022/10/17 06:02:49;;;;;;;2.80;2.70;;;21.80;61.00;;;;;;5037516;28;20468;-80
2022/10/17 06:05:17;;;;;;;3.23;2.93;;;21.80;61.10;;;;;;5038421;28;20459;-79
2022/10/17 06:07:45;;;;;;;3.50;3.00;;;21.80;61.10;;;;;;5037543;28;20450;-82
2022/10/17 06:10:15;;;;;;;3.83;2.90;;;21.70;60.80;;;;;;5027323;28;20427;-80
2022/10/17 06:12:43;;;;;;;3.03;2.73;;;21.70;61.00;;;;;;5034377;28;20558;-79
2022/10/17 06:15:13;;;;;;;2.90;2.77;;;21.80;61.00;;;;;;5034235;28;20458;-78
2022/10/17 06:17:40;;;;;;;3.70;3.40;;;21.80;60.90;;;;;;5037299;28;20467;-79
2022/10/17 06:20:09;;;;;;;3.00;2.80;;;21.80;61.00;;;;;;5037964;28;20447;-80
2022/10/17 06:22:37;;;;;;;2.97;2.77;;;21.80;61.00;;;;;;5038156;28;20445;-81
2022/10/17 06:25:06;;;;;;;8.50;6.23;;;21.80;60.90;;;;;;5046253;28;20451;-80
2022/10/17 06:27:34;;;;;;;9.80;6.57;;;20.60;63.80;;;;;;5036673;28;20446;-80
2022/10/17 06:30:02;;;;;;;8.23;6.90;;;19.80;68.10;;;;;;5044927;28;20473;-81
2022/10/17 06:32:32;;;;;;;6.80;6.00;;;19.30;71.20;;;;;;5044825;28;20475;-81
2022/10/17 06:34:59;;;;;;;13.60;7.50;;;18.90;76.80;;;;;;5046679;28;20459;-80
2022/10/17 06:37:30;;;;;;;9.77;7.20;;;18.40;80.40;;;;;;5043471;28;20498;-79
2022/10/17 06:40:03;;;;;;;10.17;6.50;;;18.30;85.20;;;;;;5045609;28;20478;-81
2022/10/17 06:42:32;;;;;;;8.77;7.20;;;18.10;90.00;;;;;;5038851;28;20460;-81
2022/10/17 06:45:00;;;;;;;12.10;7.10;;;17.90;92.70;;;;;;5041146;28;20455;-81
2022/10/17 06:47:28;;;;;;;11.43;7.50;;;17.70;96.20;;;;;;5036917;28;20458;-81
2022/10/17 06:49:58;;;;;;;11.90;8.77;;;17.50;99.10;;;;;;5037364;28;20451;-81
2022/10/17 06:52:26;;;;;;;9.47;8.20;;;17.60;99.90;;;;;;5040567;28;20475;-81
2022/10/17 06:54:54;;;;;;;11.07;7.40;;;17.90;99.90;;;;;;5044575;28;20447;-81
2022/10/17 06:57:22;;;;;;;8.70;7.00;;;17.80;99.90;;;;;;5041924;28;20455;-82
2022/10/17 06:59:50;;;;;;;7.30;6.50;;;18.30;99.90;;;;;;5039880;28;20453;-82
2022/10/17 07:02:19;;;;;;;6.30;4.80;;;19.10;99.90;;;;;;5026267;28;20538;-83
2022/10/17 07:04:47;;;;;;;12.00;5.40;;;19.70;99.80;;;;;;5038859;28;20451;-82
2022/10/17 07:07:16;;;;;;;6.23;4.93;;;20.10;96.80;;;;;;5038771;28;20455;-82
2022/10/17 07:09:44;;;;;;;5.27;4.77;;;20.40;94.60;;;;;;5037816;28;20478;-82
2022/10/17 07:12:13;;;;;;;6.63;4.40;;;20.70;92.80;;;;;;5040569;28;20470;-82
2022/10/17 07:14:41;;;;;;;4.80;4.40;;;20.90;91.40;;;;;;5041890;28;20455;-82
2022/10/17 07:17:09;;;;;;;4.47;4.00;;;21.10;90.40;;;;;;5040646;28;20448;-83
2022/10/17 07:19:37;;;;;;;4.27;3.87;;;21.20;88.60;;;;;;5040395;28;20453;-83
2022/10/17 07:22:06;;;;;;;4.57;4.17;;;21.30;86.80;;;;;;5040347;28;20494;-81
2022/10/17 07:24:35;;;;;;;4.10;3.80;;;21.40;85.00;;;;;;5050626;28;20432;-81
2022/10/17 07:27:04;;;;;;;4.93;3.77;;;21.50;83.40;;;;;;5044693;28;20451;-83
2022/10/17 07:29:32;;;;;;;3.97;3.57;;;21.60;82.50;;;;;;5041783;28;20465;-81
2022/10/17 07:32:02;;;;;;;4.50;3.77;;;21.70;81.50;;;;;;5046827;28;20479;-80
2022/10/17 07:34:30;;;;;;;3.50;3.23;;;21.80;80.70;;;;;;5047759;28;20447;-82
2022/10/17 07:36:58;;;;;;;3.77;3.53;;;21.90;79.80;;;;;;5044809;28;20557;-80
2022/10/17 07:39:26;;;;;;;5.30;2.87;;;21.90;79.20;;;;;;5048074;28;20451;-81
2022/10/17 07:41:57;;;;;;;3.23;3.03;;;22.00;78.00;;;;;;5042927;28;20472;-77
2022/10/17 07:44:26;;;;;;;3.80;3.47;;;22.10;77.30;;;;;;5035201;28;20458;-81
2022/10/17 07:46:54;;;;;;;4.33;3.20;;;22.10;76.70;;;;;;5038979;28;20458;-78
2022/10/17 07:49:22;;;;;;;3.40;3.10;;;22.20;76.20;;;;;;5038649;28;20535;-78
2022/10/17 07:51:51;;;;;;;3.93;3.33;;;22.30;75.50;;;;;;5043553;28;21008;-79
2022/10/17 07:54:19;;;;;;;3.40;2.80;;;22.30;74.90;;;;;;5037806;28;20432;-81
2022/10/17 07:56:49;;;;;;;3.60;3.40;;;22.30;74.50;;;;;;5046476;28;20525;-80
2022/10/17 07:59:19;;;;;;;3.47;3.03;;;22.40;73.60;;;;;;5034997;28;20418;-79
2022/10/17 08:01:46;;;;;;;3.63;3.40;;;22.50;73.50;;;;;;5031734;28;20453;-81
2022/10/17 08:04:15;;;;;;;3.20;3.00;;;22.60;73.20;;;;;;5036535;28;20429;-80
2022/10/17 08:06:43;;;;;;;2.97;2.77;;;22.60;72.70;;;;;;5036242;28;20415;-81
2022/10/17 08:09:12;;;;;;;3.47;3.10;;;22.70;72.40;;;;;;5025173;28;20453;-81
2022/10/17 08:11:42;;;;;;;3.30;3.10;;;22.80;72.30;;;;;;5039488;28;20482;-81
2022/10/17 08:14:11;;;;;;;2.70;2.60;;;22.80;71.70;;;;;;5044775;28;20426;-82
2022/10/17 08:16:40;;;;;;;3.17;3.00;;;22.80;71.90;;;;;;5050169;28;20520;-82
2022/10/17 08:19:11;;;;;;;3.07;2.93;;;22.90;71.40;;;;;;5048207;28;20462;-81
2022/10/17 08:21:40;;;;;;;3.80;3.50;;;23.00;70.80;;;;;;5048623;28;20430;-81
2022/10/17 08:24:08;;;;;;;3.20;3.00;;;23.00;70.80;;;;;;5034071;28;20459;-80
2022/10/17 08:26:37;;;;;;;3.73;3.27;;;23.00;70.60;;;;;;5045086;28;20414;-80
2022/10/17 08:29:13;;;;;;;3.47;3.27;;;23.10;71.30;;;;;;5030377;28;20471;-79
2022/10/17 08:31:42;;;;;;;3.17;2.90;;;23.30;71.20;;;;;;5035329;28;20550;-79
2022/10/17 08:34:15;;;;;;;3.50;3.30;;;23.40;70.40;;;;;;5034782;28;20429;-79
2022/10/17 08:36:44;;;;;;;2.97;2.80;;;23.60;70.30;;;;;;5036832;28;20534;-81
2022/10/17 08:39:12;;;;;;;6.93;3.10;;;23.80;70.50;;;;;;5035266;28;20436;-79
2022/10/17 08:41:47;;;;;;;5.50;3.20;;;24.00;70.00;;;;;;5040159;28;20556;-81
2022/10/17 08:44:21;;;;;;;3.47;3.23;;;24.20;69.30;;;;;;5036238;28;20473;-81
2022/10/17 08:46:52;;;;;;;4.20;3.17;;;24.30;69.00;;;;;;5039466;28;20426;-80
2022/10/17 08:49:23;;;;;;;2.93;2.80;;;24.40;68.60;;;;;;5038925;28;20499;-82
2022/10/17 08:51:54;;;;;;;2.90;2.70;;;24.50;68.40;;;;;;5031694;28;20469;-81
2022/10/17 08:54:24;;;;;;;3.37;3.10;;;24.50;68.10;;;;;;5038862;28;20977;-81
2022/10/17 08:56:54;;;;;;;3.67;3.37;;;24.50;68.20;;;;;;5035708;28;20458;-81
2022/10/17 08:59:26;;;;;;;2.97;2.77;;;24.60;68.00;;;;;;5042424;28;20422;-84
2022/10/17 09:01:58;;;;;;;3.20;3.00;;;24.60;67.70;;;;;;5038086;28;20449;-80
2022/10/17 09:04:45;;;;;;;4.97;3.20;;;24.70;67.90;;;;;;5040190;28;20461;-82
2022/10/17 09:07:17;;;;;;;3.20;2.90;;;24.80;67.90;;;;;;5019218;28;20414;-79
2022/10/17 09:09:50;;;;;;;4.03;3.27;;;24.80;67.60;;;;;;5033990;28;20454;-80
2022/10/17 09:12:22;;;;;;;3.20;3.00;;;25.00;67.40;;;;;;5030836;28;20537;-80
2022/10/17 09:15:04;;;;;;;3.67;3.37;;;25.00;67.10;;;;;;5034124;28;20440;-80
2022/10/17 09:17:38;;;;;;;3.27;2.97;;;25.20;67.10;;;;;;5035336;28;20430;-79
2022/10/17 09:20:10;;;;;;;3.03;2.83;;;25.30;67.00;;;;;;5034850;28;20448;-79
2022/10/17 09:22:41;;;;;;;3.47;3.17;;;25.40;66.90;;;;;;5038885;28;20445;-80
2022/10/17 09:25:11;;;;;;;3.47;3.17;;;25.50;66.30;;;;;;5036138;28;20445;-80
2022/10/17 09:27:41;;;;;;;3.30;3.10;;;25.60;66.00;;;;;;5035880;28;20456;-79
2022/10/17 09:30:29;;;;;;;3.37;3.17;;;25.60;65.70;;;;;;5027494;28;20471;-79
2022/10/17 09:33:15;;;;;;;3.77;3.37;;;25.60;66.00;;;;;;5034205;28;20475;-78
2022/10/17 09:36:02;;;;;;;3.57;3.20;;;25.60;65.70;;;;;;5036168;28;20426;-79
2022/10/17 09:38:37;;;;;;;3.40;3.20;;;25.60;65.80;;;;;;5035132;28;20441;-81
2022/10/17 09:41:05;;;;;;;3.50;3.30;;;25.60;65.70;;;;;;5036868;28;20422;-80
2022/10/17 09:43:52;;;;;;;3.30;3.10;;;25.50;65.60;;;;;;5033578;28;20422;-79
2022/10/17 09:46:23;;;;;;;13.17;3.37;;;25.60;65.70;;;;;;5036436;28;20439;-80
2022/10/17 09:48:53;;;;;;;3.90;3.20;;;25.60;65.50;;;;;;5035779;28;20437;-79
2022/10/17 09:51:21;;;;;;;3.90;3.30;;;25.60;65.30;;;;;;5031613;28;20430;-83
2022/10/17 09:53:55;;;;;;;3.83;3.53;;;25.60;65.10;;;;;;5035499;28;20475;-80
2022/10/17 09:56:23;;;;;;;3.37;3.07;;;25.50;65.10;;;;;;5038835;28;20410;-80
2022/10/17 09:58:53;;;;;;;3.40;3.20;;;25.40;65.30;;;;;;5037540;28;20441;-80
2022/10/17 10:01:22;;;;;;;3.67;3.37;;;25.40;65.50;;;;;;5038996;28;20418;-82
2022/10/17 10:04:10;;;;;;;4.70;3.20;;;25.30;65.70;;;;;;5039921;28;20440;-81
2022/10/17 10:06:38;;;;;;;5.40;3.20;;;25.30;65.90;;;;;;5037707;28;20444;-81
2022/10/17 10:09:07;;;;;;;3.20;2.90;;;25.30;65.50;;;;;;5031671;28;20414;-83
2022/10/17 10:11:46;;;;;;;3.20;2.97;;;25.30;65.60;;;;;;5037077;28;20458;-82
2022/10/17 10:14:20;;;;;;;7.40;3.07;;;25.20;65.70;;;;;;5035795;28;20447;-81
2022/10/17 10:16:48;;;;;;;7.20;3.77;;;25.20;65.80;;;;;;5029239;28;20448;-80
2022/10/17 10:19:24;;;;;;;3.70;3.40;;;25.20;65.70;;;;;;5029411;28;20451;-80
2022/10/17 10:21:55;;;;;;;5.30;3.57;;;25.30;65.60;;;;;;5036252;28;20551;-79
2022/10/17 10:24:24;;;;;;;3.40;3.10;;;25.30;65.10;;;;;;5036689;28;20432;-81
2022/10/17 10:26:58;;;;;;;3.20;2.93;;;25.30;65.20;;;;;;5036460;28;20426;-80
2022/10/17 10:29:31;;;;;;;3.30;3.00;;;25.30;65.10;;;;;;5030713;28;20473;-78
2022/10/17 10:32:09;;;;;;;3.27;3.07;;;25.40;65.30;;;;;;5037477;28;20533;-80
2022/10/17 10:34:43;;;;;;;4.03;3.00;;;25.40;64.90;;;;;;5034940;28;20435;-82
2022/10/17 10:37:17;;;;;;;3.63;3.33;;;25.40;64.80;;;;;;5024771;28;20456;-80
2022/10/17 10:39:48;;;;;;;3.03;2.70;;;25.40;64.80;;;;;;5033825;28;20498;-80
2022/10/17 10:42:25;;;;;;;3.20;2.90;;;25.40;64.80;;;;;;5030400;28;20454;-80
2022/10/17 10:44:55;;;;;;;3.60;3.37;;;25.40;64.60;;;;;;5038482;28;20434;-81
2022/10/17 10:47:25;;;;;;;3.60;3.33;;;25.40;64.60;;;;;;5038230;28;20430;-79
2022/10/17 10:50:09;;;;;;;3.13;2.97;;;25.40;64.60;;;;;;5037600;28;20453;-80
2022/10/17 10:52:41;;;;;;;3.47;3.20;;;25.50;64.70;;;;;;5033110;28;20455;-80
2022/10/17 10:55:24;;;;;;;3.27;3.07;;;25.50;64.10;;;;;;5033649;28;20418;-79
2022/10/17 10:57:54;;;;;;;3.40;3.20;;;25.50;64.10;;;;;;5035708;28;20455;-80
2022/10/17 11:00:24;;;;;;;3.50;3.20;;;25.40;63.90;;;;;;5033010;28;20451;-80
2022/10/17 11:02:57;;;;;;;3.43;3.23;;;25.40;64.10;;;;;;5040720;28;20438;-83
2022/10/17 11:05:37;;;;;;;5.40;3.73;;;25.30;64.20;;;;;;5041608;28;20433;-80
2022/10/17 11:08:10;;;;;;;3.67;3.37;;;25.30;64.30;;;;;;5033849;28;20444;-80
2022/10/17 11:10:43;;;;;;;4.03;3.10;;;25.20;64.30;;;;;;5042715;28;20471;-83
2022/10/17 11:13:13;;;;;;;4.80;3.60;;;25.20;64.50;;;;;;5038347;28;20566;-82
2022/10/17 11:15:44;;;;;;;4.23;3.83;;;25.20;64.60;;;;;;5034917;28;20426;-81
2022/10/17 11:18:18;;;;;;;3.70;3.30;;;25.10;64.50;;;;;;5033063;28;20456;-80
2022/10/17 11:20:51;;;;;;;3.70;3.40;;;25.20;64.60;;;;;;5035854;28;20444;-81
2022/10/17 11:23:22;;;;;;;3.63;3.43;;;25.20;64.60;;;;;;5046971;28;20582;-82
2022/10/17 11:25:51;;;;;;;4.00;3.57;;;25.20;64.50;;;;;;5038275;28;20433;-82
2022/10/17 11:28:21;;;;;;;3.73;3.43;;;25.20;64.10;;;;;;5043562;28;20437;-80
2022/10/17 11:30:51;;;;;;;3.77;3.57;;;25.30;64.20;;;;;;5038889;28;20471;-83
2022/10/17 11:33:24;;;;;;;3.47;3.20;;;25.20;64.30;;;;;;5039420;28;20482;-82
2022/10/17 11:35:55;;;;;;;3.33;3.13;;;25.20;64.00;;;;;;5036603;28;20478;-78
2022/10/17 11:38:29;;;;;;;3.53;3.33;;;25.20;64.30;;;;;;5037393;28;20456;-82
2022/10/17 11:40:59;;;;;;;5.37;3.97;;;25.20;63.90;;;;;;5036705;28;20439;-81
2022/10/17 11:43:29;;;;;;;4.40;3.70;;;25.20;63.90;;;;;;5032338;28;20441;-81
2022/10/17 11:46:06;;;;;;;4.10;3.67;;;25.20;64.10;;;;;;5038182;28;20397;-81
2022/10/17 11:48:39;;;;;;;6.63;3.70;;;25.10;64.40;;;;;;5030923;28;20478;-82
2022/10/17 11:51:10;;;;;;;8.00;3.50;;;25.10;64.30;;;;;;5033626;28;20454;-81
2022/10/17 11:54:02;;;;;;;4.90;3.53;;;25.10;64.30;;;;;;5035096;28;20428;-84
2022/10/17 11:56:34;;;;;;;4.10;3.50;;;25.00;64.20;;;;;;5035978;28;20446;-82
2022/10/17 11:59:22;;;;;;;6.40;3.30;;;25.00;64.40;;;;;;5033501;28;20421;-80
2022/10/17 12:01:54;;;;;;;3.83;3.53;;;25.00;64.40;;;;;;5041716;28;20463;-82
2022/10/17 12:04:38;;;;;;;3.37;3.17;;;24.90;64.80;;;;;;5038602;28;20513;-83
2022/10/17 12:07:17;;;;;;;3.63;3.33;;;24.80;65.00;;;;;;5020640;28;20943;-84
2022/10/17 12:09:48;;;;;;;4.03;3.63;;;24.80;65.20;;;;;;5035320;28;20461;-81
2022/10/17 12:12:24;;;;;;;5.93;3.60;;;24.80;65.00;;;;;;5030571;28;20453;-80
2022/10/17 12:14:53;;;;;;;3.50;3.30;;;24.90;65.20;;;;;;5028075;28;20460;-80
2022/10/17 12:17:31;;;;;;;3.77;3.47;;;24.80;64.90;;;;;;5038023;28;20906;-81
2022/10/17 12:20:33;;;;;;;4.17;3.50;;;24.80;65.10;;;;;;5037008;28;20422;-80
2022/10/17 12:23:26;;;;;;;3.90;3.60;;;24.80;64.90;;;;;;4991293;28;21005;-81
2022/10/17 12:25:56;;;;;;;4.67;3.30;;;24.80;65.10;;;;;;5035006;28;20460;-81
2022/10/17 12:28:31;;;;;;;3.57;3.37;;;24.80;65.20;;;;;;5035195;28;20437;-80
2022/10/17 12:31:00;;;;;;;4.17;3.80;;;24.80;65.10;;;;;;5034398;28;20456;-80
2022/10/17 12:33:33;;;;;;;4.03;3.30;;;24.80;65.00;;;;;;5028342;28;20458;-80
2022/10/17 12:36:45;;;;;;;4.80;3.60;;;24.80;65.00;;;;;;5028763;28;20413;-81
2022/10/17 12:39:52;;;;;;;4.00;3.70;;;24.80;64.80;;;;;;5027450;28;20426;-80
2022/10/17 12:42:50;;;;;;;4.33;4.03;;;24.80;65.10;;;;;;5035354;28;20438;-79
2022/10/17 12:45:49;;;;;;;3.63;3.30;;;24.70;65.20;;;;;;5036661;28;20540;-79
2022/10/17 12:49:06;;;;;;;4.07;3.73;;;24.70;65.30;;;;;;5022893;28;20452;-80
2022/10/17 12:52:04;;;;;;;5.80;3.77;;;24.70;65.50;;;;;;4995688;28;20473;-80
2022/10/17 12:54:37;;;;;;;5.77;4.10;;;24.60;65.80;;;;;;5035795;28;20534;-80
2022/10/17 12:57:21;;;;;;;5.20;4.20;;;24.60;66.00;;;;;;5030833;28;20433;-81
2022/10/17 12:59:50;;;;;;;3.57;3.33;;;24.60;66.10;;;;;;5034576;28;20435;-82
2022/10/17 13:02:23;;;;;;;4.70;4.20;;;24.60;66.30;;;;;;5035329;28;20433;-82
2022/10/17 13:04:53;;;;;;;5.20;3.60;;;24.60;66.10;;;;;;5053252;28;20419;-79
2022/10/17 13:07:21;;;;;;;3.87;3.47;;;24.60;66.30;;;;;;5035247;28;20444;-79